Index of /projects/mwa/docs/design-memo/PSI_proto_test_docs

[ICO]NameLast modifiedSize

[   ]Parent Directory  -
[DIR]Jigs/2010-08-17 11:28 -
[   ]MST-0421 01. Initial Photographs.doc2010-08-17 11:24 31K
[   ]MWA Test Index.doc2010-08-17 11:27 33K
[   ]MST-0421 03. Electrical.doc2010-08-17 11:24 33K
[   ]MST-0421 02. Resistance Check.doc2010-08-17 11:24 36K
[   ]MST-0421 06. Final Photographs.doc2010-08-17 11:24 36K
[   ]MST-0421 05. I2C Verification.doc2010-08-17 11:24 39K
[   ]MST-0423 02. No shorts.doc2010-08-17 11:25 43K
[   ]MST-0425 02. Shorts.doc2010-08-17 11:25 43K
[   ]MST-0431 04. Final Photographs.doc2010-08-17 11:26 43K
[   ]MST-0419 01. Resistance.doc2010-08-17 11:24 43K
[   ]MST-0422 01. Current Draw.doc2010-08-17 11:25 43K
[   ]MST-0422 04. Characterisation test.doc2010-08-17 11:25 44K
[   ]MST-0426 01. Mains Testing.doc2010-08-17 11:25 44K
[   ]MST-0448 03. SBC Digital Crate Clock.doc2010-08-17 11:27 44K
[   ]MST-0417 03. Electrical.doc2010-08-17 11:21 45K
[   ]MST-0423 01. Photographs.doc2010-08-17 11:25 45K
[   ]MST-0417 01. Initial Photographs.doc2010-08-17 11:21 45K
[   ]MST-0417 05. CPLD.doc2010-08-17 11:21 45K
[   ]MST-0421 04. RF Gain and Frequency Response.doc2010-08-17 11:24 45K
[   ]MST-0425 01. Photographs.doc2010-08-17 11:25 45K
[   ]MST-0429 01. Mains Testing.doc2010-08-17 11:26 45K
[   ]MST-0431 01. Initial Photographs.doc2010-08-17 11:26 45K
[   ]MST-0422 02. Temperature Run.doc2010-08-17 11:25 46K
[   ]MST-0429 05. Photographs.doc2010-08-17 11:26 46K
[   ]MST-0448 02. SBC ASC Control.doc2010-08-17 11:27 46K
[   ]MST-0448 04. SBC Antennae.doc2010-08-17 11:27 46K
[   ]MST-0420 01. Electrical Safety.doc2010-08-17 11:24 46K
[   ]MST-0426 02. Power Test.doc2010-08-17 11:25 46K
[   ]MST-0417 02. Resistance Check.doc2010-08-17 11:21 47K
[   ]MST-0422 03. I2C Test.doc2010-08-17 11:25 47K
[   ]MST-0431 03. I2C2PC.doc2010-08-17 11:26 47K
[   ]MST-0448 01. SBC Control Alarms.doc2010-08-17 11:26 47K
[   ]MST-0417 04. I2C Verification.doc2010-08-17 11:21 47K
[   ]MST-0418 02. Photographs.doc2010-08-17 11:21 47K
[   ]MST-0424 01. Operational Test.doc2010-08-17 11:25 47K
[   ]MST-0431 02. Voltage and current draw.doc2010-08-17 11:26 47K
[   ]MST-0418 01. Continuity and shorts.doc2010-08-17 11:21 48K
[   ]MST-0429 02. Voltage Test.doc2010-08-17 11:26 48K
[   ]MST-0426 03. Temperature Run.doc2010-08-17 11:25 49K
[   ]MST-0429 03. Load test.doc2010-08-17 11:26 50K
[   ]MST-0429 04. ADC Load Test.doc2010-08-17 11:26 51K
[   ]MST-0432 03. MWA Air Conditioner Performance (Extended Range #2).doc2010-08-17 11:26 52K
[   ]MST-0432 02. MWA Air Conditioner Performance (Extended Range #1).doc2010-08-17 11:26 52K
[   ]MST-0432 01. MWA Air Conditioner Performance.doc2010-08-17 11:26 54K
[   ]MWA Test discussions.doc2010-08-17 11:27 121K